createdAt,value
2023-07-31T00:01:16.443Z,13.72
2023-07-31T00:03:43.028Z,13.72
2023-07-31T00:06:09.652Z,13.74
2023-07-31T00:08:36.195Z,13.75
2023-07-31T00:11:02.768Z,13.77
2023-07-31T00:13:29.368Z,13.77
2023-07-31T00:15:56.145Z,13.78
2023-07-31T00:18:22.718Z,13.82
2023-07-31T00:20:49.454Z,13.79
2023-07-31T00:23:16.015Z,13.74
2023-07-31T00:25:43.065Z,13.80
2023-07-31T00:28:09.663Z,13.81
2023-07-31T00:30:36.224Z,13.80
2023-07-31T00:33:02.872Z,13.85
2023-07-31T00:35:29.514Z,13.81
2023-07-31T00:37:58.839Z,13.81
2023-07-31T00:40:25.480Z,13.79
2023-07-31T00:42:52.057Z,13.82
2023-07-31T00:45:18.740Z,13.81
2023-07-31T00:47:45.889Z,13.80
2023-07-31T00:50:12.527Z,13.79
2023-07-31T00:52:39.096Z,13.80
2023-07-31T00:55:06.136Z,13.81
2023-07-31T00:57:34.053Z,13.83
2023-07-31T01:00:01.186Z,13.87
2023-07-31T01:02:27.965Z,13.85
2023-07-31T01:04:54.682Z,13.84
2023-07-31T01:07:46.415Z,13.80
2023-07-31T01:10:26.640Z,13.77
2023-07-31T01:12:54.726Z,13.83
2023-07-31T01:15:22.160Z,13.79
2023-07-31T01:17:48.941Z,13.82
2023-07-31T01:20:23.997Z,13.75
2023-07-31T01:23:18.698Z,13.74
2023-07-31T01:25:54.442Z,13.76
2023-07-31T01:28:24.450Z,13.73
2023-07-31T01:30:51.220Z,13.80
2023-07-31T01:33:17.952Z,13.83
2023-07-31T01:35:49.980Z,13.83
2023-07-31T01:38:16.558Z,13.89
2023-07-31T01:40:43.741Z,13.90
2023-07-31T01:43:10.540Z,13.92
2023-07-31T01:45:37.220Z,13.94
2023-07-31T01:48:03.878Z,13.95
2023-07-31T01:50:30.524Z,14.01
2023-07-31T01:52:57.208Z,14.00
2023-07-31T01:55:23.796Z,13.98
2023-07-31T01:57:50.426Z,14.04
2023-07-31T02:00:17.091Z,14.08
2023-07-31T02:02:43.730Z,14.06
2023-07-31T02:05:10.446Z,14.07
2023-07-31T02:07:37.054Z,14.14
2023-07-31T02:10:03.823Z,14.13
2023-07-31T02:12:33.082Z,14.14
2023-07-31T02:14:59.696Z,14.06
2023-07-31T02:17:26.439Z,14.08
2023-07-31T02:19:54.070Z,14.08
2023-07-31T02:22:20.922Z,14.05
2023-07-31T02:24:47.625Z,14.08
2023-07-31T02:27:14.241Z,14.06
2023-07-31T02:29:40.813Z,14.09
2023-07-31T02:32:07.636Z,14.08
2023-07-31T02:34:34.261Z,14.05
2023-07-31T02:37:01.845Z,14.08
2023-07-31T02:39:28.471Z,14.04
2023-07-31T02:41:55.058Z,14.03
2023-07-31T02:44:22.208Z,14.05
2023-07-31T02:46:48.783Z,14.06
2023-07-31T02:49:15.300Z,14.04
2023-07-31T02:51:41.879Z,14.06
2023-07-31T02:54:08.490Z,13.99
2023-07-31T02:56:35.110Z,14.02
2023-07-31T02:59:01.650Z,14.02
2023-07-31T03:01:28.230Z,14.04
2023-07-31T03:03:54.814Z,14.02
2023-07-31T03:06:21.546Z,14.02
2023-07-31T03:08:48.093Z,13.99
2023-07-31T03:11:14.726Z,14.05
2023-07-31T03:13:41.344Z,14.03
2023-07-31T03:16:07.938Z,14.06
2023-07-31T03:18:34.623Z,14.09
2023-07-31T03:21:01.164Z,14.02
2023-07-31T03:23:27.732Z,14.19
2023-07-31T03:26:01.879Z,14.24
2023-07-31T03:28:28.560Z,14.24
2023-07-31T03:30:55.277Z,14.22
2023-07-31T03:33:21.965Z,14.19
2023-07-31T03:35:48.563Z,14.18
2023-07-31T03:38:15.157Z,14.19
2023-07-31T03:40:41.792Z,14.25
2023-07-31T03:43:08.407Z,14.29
2023-07-31T03:45:34.977Z,14.27
2023-07-31T03:48:01.612Z,14.24
2023-07-31T03:50:28.220Z,14.31
2023-07-31T03:52:54.803Z,14.28
2023-07-31T03:55:22.806Z,14.37
2023-07-31T03:57:49.430Z,14.36
2023-07-31T04:00:16.179Z,14.32
2023-07-31T04:02:42.792Z,14.33
2023-07-31T04:05:09.424Z,14.31
2023-07-31T04:07:36.129Z,14.34
2023-07-31T04:10:02.819Z,14.32
2023-07-31T04:12:29.383Z,14.42
2023-07-31T04:14:55.989Z,14.42
2023-07-31T04:17:22.736Z,14.40
2023-07-31T04:19:49.418Z,14.20
2023-07-31T04:22:15.951Z,14.10
2023-07-31T04:24:42.540Z,14.00
2023-07-31T04:27:09.114Z,13.94
2023-07-31T04:29:35.757Z,13.89
2023-07-31T04:32:02.346Z,13.92
2023-07-31T04:34:28.939Z,13.86
2023-07-31T04:36:55.518Z,13.89
2023-07-31T04:39:22.101Z,13.86
2023-07-31T04:41:48.632Z,13.90
2023-07-31T04:44:15.441Z,13.91
2023-07-31T04:46:42.402Z,13.92
2023-07-31T04:49:09.255Z,13.88
2023-07-31T04:51:35.876Z,13.94
2023-07-31T04:54:02.500Z,13.87
2023-07-31T04:56:29.124Z,13.91
2023-07-31T04:58:56.083Z,13.90
2023-07-31T05:01:22.741Z,13.93
2023-07-31T05:03:49.520Z,13.93
2023-07-31T05:06:16.507Z,13.92
2023-07-31T05:08:43.138Z,13.90
2023-07-31T05:11:09.735Z,13.91
2023-07-31T05:13:36.324Z,13.97
2023-07-31T05:16:03.680Z,13.93
2023-07-31T05:18:30.470Z,13.93
2023-07-31T05:20:57.064Z,13.96
2023-07-31T05:23:23.635Z,13.92
2023-07-31T05:25:50.219Z,13.90
2023-07-31T05:28:16.812Z,14.01
2023-07-31T05:30:43.822Z,14.04
2023-07-31T05:33:12.241Z,14.08
2023-07-31T05:35:40.460Z,14.12
2023-07-31T05:38:07.670Z,14.19
2023-07-31T05:40:34.684Z,14.20
2023-07-31T05:43:01.283Z,14.20
2023-07-31T05:45:28.060Z,14.23
2023-07-31T05:47:55.092Z,14.23
2023-07-31T05:50:21.893Z,14.35
2023-07-31T05:52:48.657Z,14.24
2023-07-31T05:55:15.369Z,14.24
2023-07-31T05:57:41.963Z,14.26
2023-07-31T06:00:09.170Z,14.32
2023-07-31T06:02:38.086Z,14.36
2023-07-31T06:05:07.293Z,14.48
2023-07-31T06:07:34.013Z,14.59
2023-07-31T06:10:06.163Z,14.76
2023-07-31T06:12:34.327Z,14.97
2023-07-31T06:15:01.156Z,15.08
2023-07-31T06:17:27.921Z,15.21
2023-07-31T06:19:55.037Z,15.29
2023-07-31T06:22:21.667Z,15.38
2023-07-31T06:24:48.434Z,15.46
2023-07-31T06:27:15.285Z,15.53
2023-07-31T06:29:42.394Z,15.67
2023-07-31T06:32:09.317Z,15.75
2023-07-31T06:34:36.095Z,15.75
2023-07-31T06:37:02.742Z,15.59
2023-07-31T06:39:29.369Z,15.54
2023-07-31T06:41:56.021Z,15.30
2023-07-31T06:44:22.935Z,15.17
2023-07-31T06:46:49.672Z,15.17
2023-07-31T06:49:17.363Z,15.18
2023-07-31T06:51:45.320Z,15.21
2023-07-31T06:54:12.422Z,15.21
2023-07-31T06:56:41.082Z,15.07
2023-07-31T06:59:08.289Z,14.83
2023-07-31T07:01:34.895Z,14.63
2023-07-31T07:04:01.620Z,14.52
2023-07-31T07:06:28.270Z,14.43
2023-07-31T07:08:54.852Z,14.37
2023-07-31T07:11:21.428Z,14.42
2023-07-31T07:13:48.004Z,14.46
2023-07-31T07:16:14.864Z,14.52
2023-07-31T07:18:46.757Z,14.64
2023-07-31T07:21:19.179Z,14.65
2023-07-31T07:23:45.849Z,14.67
2023-07-31T07:26:13.766Z,14.85
2023-07-31T07:28:40.464Z,14.87
2023-07-31T07:31:07.167Z,14.97
2023-07-31T07:33:33.837Z,15.29
2023-07-31T07:36:03.795Z,15.36
2023-07-31T07:38:30.320Z,15.72
2023-07-31T07:40:56.939Z,16.09
2023-07-31T07:43:23.487Z,15.99
2023-07-31T07:45:50.941Z,16.18
2023-07-31T07:48:18.557Z,16.30
2023-07-31T07:50:45.302Z,16.40
2023-07-31T07:53:11.974Z,16.42
2023-07-31T07:55:38.637Z,16.40
2023-07-31T07:58:06.371Z,16.00
2023-07-31T08:00:33.027Z,15.98
2023-07-31T08:02:59.922Z,15.92
2023-07-31T08:05:26.621Z,15.74
2023-07-31T08:07:53.205Z,15.54
2023-07-31T08:10:19.815Z,15.38
2023-07-31T08:12:46.323Z,15.34
2023-07-31T08:15:12.990Z,15.25
2023-07-31T08:17:39.629Z,15.08
2023-07-31T08:20:09.524Z,15.09
2023-07-31T08:22:36.111Z,15.25
2023-07-31T08:25:02.749Z,15.18
2023-07-31T08:27:30.562Z,15.09
2023-07-31T08:29:57.171Z,15.23
2023-07-31T08:32:23.959Z,15.33
2023-07-31T08:34:50.824Z,15.44
2023-07-31T08:37:17.529Z,15.47
2023-07-31T08:39:44.207Z,15.48
2023-07-31T08:42:10.790Z,15.41
2023-07-31T08:44:37.820Z,15.48
2023-07-31T08:47:04.857Z,15.58
2023-07-31T08:49:32.027Z,15.83
2023-07-31T08:51:59.338Z,15.96
2023-07-31T08:54:26.022Z,16.13
2023-07-31T08:56:54.265Z,16.10
2023-07-31T08:59:22.467Z,16.22
2023-07-31T09:01:51.692Z,16.39
2023-07-31T09:04:21.111Z,16.27
2023-07-31T09:06:49.554Z,15.88
2023-07-31T09:09:17.315Z,15.83
2023-07-31T09:11:44.002Z,15.89
2023-07-31T09:14:11.672Z,15.97
2023-07-31T09:16:53.970Z,16.13
2023-07-31T09:19:28.341Z,16.00
2023-07-31T09:21:55.459Z,15.63
2023-07-31T09:24:29.668Z,15.39
2023-07-31T09:27:00.644Z,15.36
2023-07-31T09:29:28.814Z,15.39
2023-07-31T09:31:56.329Z,15.19
2023-07-31T09:34:30.775Z,15.12
2023-07-31T09:37:02.181Z,15.08
2023-07-31T09:39:28.983Z,15.10
2023-07-31T09:41:56.908Z,15.32
2023-07-31T09:44:38.887Z,15.40
2023-07-31T09:47:05.884Z,15.59
2023-07-31T09:49:32.950Z,15.73
2023-07-31T09:51:59.655Z,16.08
2023-07-31T09:54:26.322Z,16.24
2023-07-31T09:56:53.476Z,16.47
2023-07-31T09:59:24.237Z,16.11
2023-07-31T10:01:51.965Z,16.21
2023-07-31T10:04:21.957Z,16.32
2023-07-31T10:06:50.788Z,16.43
2023-07-31T10:09:20.196Z,16.45
2023-07-31T10:11:57.218Z,16.18
2023-07-31T10:14:25.318Z,16.23
2023-07-31T10:16:52.296Z,16.10
2023-07-31T10:19:20.373Z,16.17
2023-07-31T10:21:48.206Z,16.62
2023-07-31T10:24:16.104Z,16.86
2023-07-31T10:26:47.073Z,17.06
2023-07-31T10:29:14.087Z,17.29
2023-07-31T10:31:41.157Z,17.40
2023-07-31T10:34:07.856Z,17.44
2023-07-31T10:36:34.831Z,17.20
2023-07-31T10:39:05.273Z,17.32
2023-07-31T10:41:32.465Z,17.55
2023-07-31T10:44:00.756Z,17.54
2023-07-31T10:46:29.724Z,17.41
2023-07-31T10:49:01.651Z,17.33
2023-07-31T10:51:38.789Z,17.16
2023-07-31T10:54:16.234Z,16.85
2023-07-31T10:56:47.563Z,16.83
2023-07-31T10:59:15.126Z,16.41
2023-07-31T11:01:55.580Z,16.33
2023-07-31T11:04:28.662Z,17.03
2023-07-31T11:07:03.773Z,16.92
2023-07-31T11:09:33.410Z,17.30
2023-07-31T11:12:00.850Z,17.18
2023-07-31T11:14:27.632Z,17.07
2023-07-31T11:16:54.370Z,17.31
2023-07-31T11:19:25.177Z,17.50
2023-07-31T11:21:54.848Z,17.38
2023-07-31T11:24:21.996Z,17.18
2023-07-31T11:26:54.784Z,16.89
2023-07-31T11:29:21.734Z,16.72
2023-07-31T11:31:49.931Z,16.12
2023-07-31T11:34:16.472Z,16.51
2023-07-31T11:36:54.060Z,16.88
2023-07-31T11:39:20.618Z,16.63
2023-07-31T11:41:47.222Z,16.79
2023-07-31T11:44:27.110Z,16.52
2023-07-31T11:46:57.894Z,16.67
2023-07-31T11:49:24.622Z,16.98
2023-07-31T11:51:51.374Z,17.26
2023-07-31T11:54:18.084Z,17.65
2023-07-31T11:56:44.919Z,17.81
2023-07-31T11:59:13.282Z,17.53
2023-07-31T12:01:40.097Z,17.42
2023-07-31T12:04:06.834Z,17.43
2023-07-31T12:06:35.480Z,17.46
2023-07-31T12:09:06.354Z,17.29
2023-07-31T12:11:44.052Z,17.34
2023-07-31T12:14:32.189Z,17.19
2023-07-31T12:17:05.641Z,17.12
2023-07-31T12:19:32.797Z,17.09
2023-07-31T12:22:00.549Z,17.07
2023-07-31T12:24:30.269Z,16.99
2023-07-31T12:26:56.860Z,16.97
2023-07-31T12:29:23.520Z,16.72
2023-07-31T12:31:50.169Z,16.53
2023-07-31T12:34:19.121Z,16.41
2023-07-31T12:36:45.831Z,16.32
2023-07-31T12:39:13.926Z,16.27
2023-07-31T12:41:40.512Z,16.18
2023-07-31T12:44:07.096Z,16.16
2023-07-31T12:46:34.193Z,16.23
2023-07-31T12:49:00.904Z,16.21
2023-07-31T12:51:27.475Z,16.22
2023-07-31T12:53:54.090Z,16.12
2023-07-31T12:56:20.776Z,16.25
2023-07-31T12:58:47.317Z,16.36
2023-07-31T13:01:13.993Z,16.51
2023-07-31T13:03:40.629Z,16.37
2023-07-31T13:06:07.340Z,16.47
2023-07-31T13:08:33.880Z,16.58
2023-07-31T13:11:00.461Z,16.52
2023-07-31T13:13:27.021Z,16.47
2023-07-31T13:15:53.713Z,16.18
2023-07-31T13:18:20.311Z,16.54
2023-07-31T13:20:46.972Z,16.98
2023-07-31T13:23:13.558Z,17.66
2023-07-31T13:25:40.225Z,17.71
2023-07-31T13:28:06.793Z,17.65
2023-07-31T13:30:34.468Z,18.06
2023-07-31T13:33:01.076Z,18.57
2023-07-31T13:35:27.749Z,18.63
2023-07-31T13:37:54.346Z,18.30
2023-07-31T13:40:20.950Z,18.13
2023-07-31T13:42:48.873Z,17.99
2023-07-31T13:45:15.649Z,17.71
2023-07-31T13:47:42.345Z,17.42
2023-07-31T13:50:09.329Z,17.19
2023-07-31T13:52:35.896Z,17.08
2023-07-31T13:55:02.444Z,16.83
2023-07-31T13:57:29.568Z,16.80
2023-07-31T13:59:56.136Z,16.83
2023-07-31T14:02:22.790Z,17.00
2023-07-31T14:04:49.463Z,17.02
2023-07-31T14:07:16.066Z,16.92
2023-07-31T14:09:42.663Z,16.95
2023-07-31T14:12:09.328Z,16.70
2023-07-31T14:14:35.979Z,16.95
2023-07-31T14:17:02.974Z,17.07
2023-07-31T14:19:30.030Z,17.21
2023-07-31T14:22:10.303Z,17.29
2023-07-31T14:24:37.866Z,17.23
2023-07-31T14:27:04.664Z,17.37
2023-07-31T14:29:31.346Z,17.66
2023-07-31T14:31:57.989Z,17.84
2023-07-31T14:34:24.593Z,18.11
2023-07-31T14:36:51.150Z,18.34
2023-07-31T14:39:17.944Z,18.52
2023-07-31T14:41:44.508Z,18.52
2023-07-31T14:44:11.101Z,18.28
2023-07-31T14:46:37.952Z,18.07
2023-07-31T14:49:04.887Z,17.72
2023-07-31T14:51:31.453Z,17.52
2023-07-31T14:53:58.015Z,17.62
2023-07-31T14:56:24.605Z,17.58
2023-07-31T14:58:51.204Z,17.76
2023-07-31T15:01:17.814Z,17.92
2023-07-31T15:03:44.513Z,18.15
2023-07-31T15:06:13.074Z,17.97
2023-07-31T15:08:39.928Z,18.09
2023-07-31T15:11:06.525Z,18.12
2023-07-31T15:13:33.177Z,17.92
2023-07-31T15:16:00.012Z,18.26
2023-07-31T15:18:26.978Z,18.39
2023-07-31T15:20:54.574Z,18.19
2023-07-31T15:23:21.148Z,18.07
2023-07-31T15:25:47.708Z,17.93
2023-07-31T15:28:14.332Z,17.55
2023-07-31T15:30:41.004Z,17.55
2023-07-31T15:33:07.617Z,17.44
2023-07-31T15:35:34.288Z,17.61
2023-07-31T15:38:00.809Z,17.63
2023-07-31T15:40:27.391Z,17.58
2023-07-31T15:42:53.968Z,17.58
2023-07-31T15:45:20.597Z,17.58
2023-07-31T15:47:47.260Z,17.61
2023-07-31T15:50:13.858Z,17.50
2023-07-31T15:52:40.459Z,17.46
2023-07-31T15:55:07.545Z,17.43
2023-07-31T15:57:34.376Z,17.48
2023-07-31T16:00:01.111Z,17.50
2023-07-31T16:02:27.719Z,17.44
2023-07-31T16:04:54.537Z,17.43
2023-07-31T16:07:22.480Z,17.27
2023-07-31T16:09:50.429Z,16.98
2023-07-31T16:12:17.094Z,16.85
2023-07-31T16:14:43.991Z,16.62
2023-07-31T16:17:10.767Z,16.73
2023-07-31T16:19:38.504Z,16.78
2023-07-31T16:22:05.591Z,16.69
2023-07-31T16:24:32.512Z,16.69
2023-07-31T16:26:59.160Z,16.65
2023-07-31T16:29:25.728Z,16.61
2023-07-31T16:31:58.035Z,16.48
2023-07-31T16:34:27.533Z,16.54
2023-07-31T16:36:57.247Z,16.45
2023-07-31T16:39:24.076Z,16.34
2023-07-31T16:41:51.047Z,16.28
2023-07-31T16:44:17.830Z,16.16
2023-07-31T16:46:44.549Z,16.15
2023-07-31T16:49:11.250Z,16.16
2023-07-31T16:51:38.256Z,16.13
2023-07-31T16:54:05.127Z,16.15
2023-07-31T16:56:38.991Z,16.12
2023-07-31T16:59:17.989Z,16.19
2023-07-31T17:01:44.992Z,16.21
2023-07-31T17:04:12.062Z,16.20
2023-07-31T17:06:38.814Z,16.13
2023-07-31T17:09:05.380Z,16.04
2023-07-31T17:11:31.978Z,15.80
2023-07-31T17:13:58.577Z,15.57
2023-07-31T17:16:25.433Z,15.43
2023-07-31T17:18:51.974Z,15.32
2023-07-31T17:21:18.493Z,15.24
2023-07-31T17:23:45.054Z,15.24
2023-07-31T17:26:13.419Z,15.19
2023-07-31T17:28:43.015Z,15.23
2023-07-31T17:31:09.603Z,15.21
2023-07-31T17:33:36.662Z,15.25
2023-07-31T17:36:03.480Z,15.27
2023-07-31T17:38:30.054Z,15.31
2023-07-31T17:40:56.657Z,15.25
2023-07-31T17:43:23.636Z,15.15
2023-07-31T17:45:50.202Z,15.17
2023-07-31T17:48:16.783Z,15.16
2023-07-31T17:50:43.451Z,15.14
2023-07-31T17:53:10.021Z,15.12
2023-07-31T17:55:36.622Z,15.11
2023-07-31T17:58:03.147Z,15.10
2023-07-31T18:00:30.554Z,15.10
2023-07-31T18:02:57.275Z,14.98
2023-07-31T18:05:23.915Z,14.96
2023-07-31T18:07:50.637Z,14.96
2023-07-31T18:10:17.307Z,14.92
2023-07-31T18:12:43.971Z,14.87
2023-07-31T18:15:11.127Z,14.83
2023-07-31T18:17:37.714Z,14.87
2023-07-31T18:20:06.871Z,14.82
2023-07-31T18:22:33.390Z,14.78
2023-07-31T18:24:59.958Z,14.80
2023-07-31T18:27:26.580Z,14.76
2023-07-31T18:29:53.120Z,14.73
2023-07-31T18:32:19.867Z,14.74
2023-07-31T18:34:46.448Z,14.67
2023-07-31T18:37:12.978Z,14.65
2023-07-31T18:39:39.558Z,14.67
2023-07-31T18:42:06.669Z,14.65
2023-07-31T18:44:33.273Z,14.64
2023-07-31T18:47:00.213Z,14.65
2023-07-31T18:49:26.799Z,14.62
2023-07-31T18:51:53.438Z,14.60
2023-07-31T18:54:20.090Z,14.57
2023-07-31T18:56:46.758Z,14.60
2023-07-31T18:59:13.426Z,14.61
2023-07-31T19:01:42.028Z,14.59
2023-07-31T19:04:08.750Z,14.57
2023-07-31T19:06:36.527Z,14.58
2023-07-31T19:09:05.232Z,14.57
2023-07-31T19:11:33.390Z,14.61
2023-07-31T19:14:01.009Z,14.54
2023-07-31T19:16:27.905Z,14.55
2023-07-31T19:18:54.528Z,14.52
2023-07-31T19:21:21.191Z,14.54
2023-07-31T19:23:48.020Z,14.53
2023-07-31T19:26:15.009Z,14.45
2023-07-31T19:28:41.675Z,14.51
2023-07-31T19:31:08.396Z,14.47
2023-07-31T19:33:35.007Z,14.46
2023-07-31T19:36:01.616Z,14.46
2023-07-31T19:38:28.536Z,14.45
2023-07-31T19:40:55.367Z,14.49
2023-07-31T19:43:22.084Z,14.49
2023-07-31T19:45:48.917Z,14.48
2023-07-31T19:48:16.732Z,14.45
2023-07-31T19:50:43.353Z,14.54
2023-07-31T19:53:10.004Z,14.52
2023-07-31T19:55:36.699Z,14.51
2023-07-31T19:58:03.445Z,14.56
2023-07-31T20:00:30.286Z,14.54
2023-07-31T20:02:57.078Z,14.58
2023-07-31T20:05:23.755Z,14.58
2023-07-31T20:07:50.424Z,14.58
2023-07-31T20:10:16.993Z,14.59
2023-07-31T20:12:43.626Z,14.53
2023-07-31T20:15:20.318Z,14.56
2023-07-31T20:17:47.219Z,14.56
2023-07-31T20:20:14.076Z,14.54
2023-07-31T20:22:43.100Z,14.57
2023-07-31T20:25:10.205Z,14.56
2023-07-31T20:27:36.947Z,14.53
2023-07-31T20:30:03.904Z,14.55
2023-07-31T20:32:30.661Z,14.57
2023-07-31T20:34:57.400Z,14.54
2023-07-31T20:37:24.058Z,14.54
2023-07-31T20:39:50.776Z,14.52
2023-07-31T20:42:21.142Z,14.47
2023-07-31T20:44:48.313Z,14.49
2023-07-31T20:47:14.900Z,14.47
2023-07-31T20:49:41.867Z,14.52
2023-07-31T20:52:08.500Z,14.52
2023-07-31T20:54:35.270Z,14.54
2023-07-31T20:57:01.876Z,14.54
2023-07-31T20:59:28.536Z,14.60
2023-07-31T21:01:55.282Z,14.59
2023-07-31T21:04:21.993Z,14.60
2023-07-31T21:06:48.618Z,14.59
2023-07-31T21:09:15.251Z,14.59
2023-07-31T21:11:41.882Z,14.61
2023-07-31T21:14:08.633Z,14.65
2023-07-31T21:16:35.251Z,14.62
2023-07-31T21:19:02.054Z,14.67
2023-07-31T21:21:28.680Z,14.63
2023-07-31T21:23:55.348Z,14.69
2023-07-31T21:26:22.032Z,14.63
2023-07-31T21:28:49.155Z,14.60
2023-07-31T21:31:16.468Z,14.60
2023-07-31T21:33:44.054Z,14.62
2023-07-31T21:36:10.633Z,14.60
2023-07-31T21:38:37.257Z,14.58
2023-07-31T21:41:05.396Z,14.66
2023-07-31T21:43:32.072Z,14.65
2023-07-31T21:45:58.908Z,14.63
2023-07-31T21:48:25.594Z,14.62
2023-07-31T21:50:52.259Z,14.60
2023-07-31T21:53:19.287Z,14.65
2023-07-31T21:55:46.109Z,14.67
2023-07-31T21:58:12.661Z,14.64
2023-07-31T22:00:39.343Z,14.68
2023-07-31T22:03:05.996Z,14.66
2023-07-31T22:05:32.613Z,14.65
2023-07-31T22:07:59.437Z,14.63
2023-07-31T22:10:26.042Z,14.64
2023-07-31T22:12:52.622Z,14.65
2023-07-31T22:15:19.218Z,14.63
2023-07-31T22:17:46.260Z,14.66
2023-07-31T22:20:12.964Z,14.68
2023-07-31T22:22:39.526Z,14.67
2023-07-31T22:25:06.532Z,14.64
2023-07-31T22:27:33.056Z,14.68
2023-07-31T22:29:59.668Z,14.65
2023-07-31T22:32:26.248Z,14.64
2023-07-31T22:34:52.973Z,14.61
2023-07-31T22:37:19.530Z,14.61
2023-07-31T22:39:46.089Z,14.61
2023-07-31T22:42:12.657Z,14.58
2023-07-31T22:44:39.356Z,14.61
2023-07-31T22:47:06.152Z,14.60
2023-07-31T22:49:32.806Z,14.58
2023-07-31T22:51:59.388Z,14.61
2023-07-31T22:54:25.980Z,14.63
2023-07-31T22:56:52.607Z,14.62
2023-07-31T22:59:19.160Z,14.62
2023-07-31T23:01:45.776Z,14.60
2023-07-31T23:04:12.464Z,14.61
2023-07-31T23:06:39.337Z,14.61
2023-07-31T23:09:06.072Z,14.64
2023-07-31T23:11:32.685Z,14.61
2023-07-31T23:13:59.229Z,14.63
2023-07-31T23:16:25.877Z,14.64
2023-07-31T23:18:52.492Z,14.64
2023-07-31T23:21:19.059Z,14.67
2023-07-31T23:23:45.626Z,14.68
2023-07-31T23:26:12.263Z,14.69
2023-07-31T23:28:38.900Z,14.73
2023-07-31T23:31:05.746Z,14.72
2023-07-31T23:33:32.748Z,14.75
2023-07-31T23:36:08.404Z,14.78
2023-07-31T23:38:34.982Z,14.76
2023-07-31T23:41:01.543Z,14.77
2023-07-31T23:43:28.148Z,14.82
2023-07-31T23:45:54.742Z,14.81
2023-07-31T23:48:21.375Z,14.75
2023-07-31T23:50:48.025Z,14.78
2023-07-31T23:53:14.736Z,14.75
2023-07-31T23:55:41.347Z,14.81
2023-07-31T23:58:08.258Z,14.82
